Time;durP1;ratioP1;P1;durP2;ratioP2;P2;SDS_P1;SDS_P2;PMS_P1;PMS_P2;Temp;Humidity;BMP_temperature;BMP_pressure;BME280_temperature;BME280_humidity;BME280_pressure;Samples;Min_cycle;Max_cycle;Signal;HPM_P1;HPM_P2
2021/10/01 00:02:18;;;;;;;4.23;1.93;;;11.30;99.90;;;;;;5110222;22;20496;-55
2021/10/01 00:04:44;;;;;;;3.70;2.40;;;11.40;99.90;;;;;;5102968;28;20457;-51
2021/10/01 00:07:12;;;;;;;3.77;1.80;;;11.30;99.90;;;;;;5110433;22;20998;-50
2021/10/01 00:09:41;;;;;;;2.13;1.10;;;11.30;99.90;;;;;;5102743;28;20466;-52
2021/10/01 00:12:08;;;;;;;4.30;1.80;;;11.30;99.90;;;;;;5106587;22;20490;-48
2021/10/01 00:14:37;;;;;;;2.03;1.27;;;11.30;99.90;;;;;;5082168;28;20492;-54
2021/10/01 00:17:04;;;;;;;2.37;1.63;;;11.40;99.90;;;;;;5090530;22;20473;-51
2021/10/01 00:19:34;;;;;;;5.30;1.33;;;11.30;99.90;;;;;;5081715;28;20543;-50
2021/10/01 00:24:37;;;;;;;3.40;1.60;;;11.30;99.90;;;;;;5109566;22;20477;-51
2021/10/01 00:27:08;;;;;;;1.70;1.17;;;11.20;99.90;;;;;;5102142;28;20429;-54
2021/10/01 00:29:35;;;;;;;1.90;1.67;;;11.30;99.90;;;;;;5091624;22;20501;-50
2021/10/01 00:32:02;;;;;;;1.40;1.30;;;11.30;99.90;;;;;;5082054;28;20465;-49
2021/10/01 00:34:28;;;;;;;6.10;1.60;;;11.30;99.90;;;;;;5105732;22;20546;-50
2021/10/01 00:36:55;;;;;;;6.60;1.20;;;11.20;99.90;;;;;;5102621;28;20444;-50
2021/10/01 00:39:22;;;;;;;3.17;1.60;;;11.20;99.90;;;;;;5128311;22;20566;-50
2021/10/01 00:41:50;;;;;;;4.70;1.57;;;11.20;99.90;;;;;;5105782;28;20488;-47
2021/10/01 00:44:16;;;;;;;1.60;1.50;;;11.20;99.90;;;;;;5130102;22;20492;-46
2021/10/01 00:46:43;;;;;;;3.87;1.50;;;11.30;99.90;;;;;;5106009;28;20487;-50
2021/10/01 00:49:10;;;;;;;2.30;1.70;;;11.30;99.90;;;;;;5114175;22;20477;-49
2021/10/01 00:51:39;;;;;;;4.43;1.77;;;11.20;99.90;;;;;;5106109;28;20760;-50
2021/10/01 00:54:06;;;;;;;2.40;1.30;;;11.20;99.90;;;;;;5122209;22;20481;-48
2021/10/01 00:56:33;;;;;;;2.07;1.70;;;11.20;99.90;;;;;;5105567;28;20437;-48
2021/10/01 00:59:01;;;;;;;3.77;1.97;;;11.20;99.90;;;;;;5109294;22;20474;-51
2021/10/01 01:01:28;;;;;;;2.90;1.90;;;11.20;99.90;;;;;;5084795;28;20466;-53
2021/10/01 01:04:00;;;;;;;2.50;1.90;;;11.10;99.90;;;;;;5085996;28;20554;-52
2021/10/01 01:06:38;;;;;;;2.00;1.80;;;11.00;99.90;;;;;;5087431;28;20435;-50
2021/10/01 01:09:10;;;;;;;2.07;1.40;;;11.00;99.90;;;;;;5086789;28;20470;-54
2021/10/01 01:11:52;;;;;;;1.67;1.57;;;11.00;99.90;;;;;;5086601;28;20407;-51
2021/10/01 01:14:26;;;;;;;2.77;1.80;;;11.00;99.90;;;;;;5077213;28;20770;-51
2021/10/01 01:16:56;;;;;;;4.23;2.17;;;10.90;99.90;;;;;;5077332;28;20438;-54
2021/10/01 01:19:37;;;;;;;1.73;1.50;;;10.90;99.90;;;;;;5077169;28;20443;-52
2021/10/01 01:22:12;;;;;;;2.60;1.80;;;10.80;99.90;;;;;;5077124;28;20457;-52
2021/10/01 01:25:06;;;;;;;7.87;2.10;;;10.80;99.90;;;;;;5077184;28;20437;-55
2021/10/01 01:27:46;;;;;;;1.77;1.47;;;10.80;99.90;;;;;;5077175;28;20538;-52
2021/10/01 01:30:17;;;;;;;2.50;1.50;;;10.80;99.90;;;;;;5077040;28;20484;-55
2021/10/01 01:32:49;;;;;;;1.77;1.40;;;10.80;99.90;;;;;;5077001;28;20795;-52
2021/10/01 01:35:19;;;;;;;2.03;1.53;;;10.80;99.90;;;;;;5076916;28;20899;-51
2021/10/01 01:37:50;;;;;;;8.70;2.10;;;10.80;99.90;;;;;;5076985;28;20478;-54
2021/10/01 01:40:20;;;;;;;2.23;2.03;;;10.70;99.90;;;;;;5077755;28;20427;-52
2021/10/01 01:42:48;;;;;;;2.80;2.10;;;10.80;99.90;;;;;;5076640;28;20805;-52
2021/10/01 01:45:17;;;;;;;1.67;1.57;;;10.70;99.90;;;;;;5076491;28;20451;-50
2021/10/01 01:47:46;;;;;;;1.70;1.53;;;10.70;99.90;;;;;;5076647;28;20449;-57
2021/10/01 01:50:14;;;;;;;2.83;1.93;;;10.60;99.90;;;;;;5077049;28;20430;-55
2021/10/01 01:52:43;;;;;;;4.87;2.03;;;10.60;99.90;;;;;;5076638;28;20834;-53
2021/10/01 01:55:11;;;;;;;3.53;1.43;;;10.60;99.90;;;;;;5076327;28;20966;-50
2021/10/01 01:57:39;;;;;;;3.60;1.57;;;10.50;99.90;;;;;;5076596;28;20454;-50
2021/10/01 02:00:07;;;;;;;2.17;1.47;;;10.50;99.90;;;;;;5076175;28;20833;-55
2021/10/01 02:02:35;;;;;;;3.17;1.87;;;10.50;99.90;;;;;;5076536;28;20498;-52
2021/10/01 02:05:05;;;;;;;1.80;1.50;;;10.50;99.90;;;;;;5076322;28;20540;-53
2021/10/01 02:07:33;;;;;;;2.70;1.70;;;10.50;99.90;;;;;;5076309;28;20458;-54
2021/10/01 02:10:00;;;;;;;2.20;1.60;;;10.50;99.90;;;;;;5076184;28;20466;-54
2021/10/01 02:12:29;;;;;;;6.33;1.90;;;10.50;99.90;;;;;;5076350;28;20431;-53
2021/10/01 02:14:57;;;;;;;5.40;1.70;;;10.50;99.90;;;;;;5076159;28;20450;-54
2021/10/01 02:17:25;;;;;;;2.63;2.03;;;10.40;99.90;;;;;;5076184;28;20450;-50
2021/10/01 02:19:52;;;;;;;3.67;2.13;;;10.40;99.90;;;;;;5076119;28;20531;-52
2021/10/01 02:22:22;;;;;;;3.90;1.77;;;10.40;99.90;;;;;;5075542;28;20543;-53
2021/10/01 02:24:49;;;;;;;3.90;2.47;;;10.40;99.90;;;;;;5075699;28;20463;-50
2021/10/01 02:27:22;;;;;;;3.70;1.77;;;10.40;99.90;;;;;;5075939;28;20465;-52
2021/10/01 02:29:56;;;;;;;5.80;2.30;;;10.30;99.90;;;;;;5075880;28;20468;-50
2021/10/01 02:32:32;;;;;;;3.30;2.63;;;10.30;99.90;;;;;;5075756;28;20473;-54
2021/10/01 02:35:00;;;;;;;2.47;1.73;;;10.30;99.90;;;;;;5075809;28;20516;-54
2021/10/01 02:37:28;;;;;;;2.47;2.10;;;10.30;99.90;;;;;;5075583;28;20446;-51
2021/10/01 02:39:56;;;;;;;6.17;2.23;;;10.20;99.90;;;;;;5075646;28;20454;-51
2021/10/01 02:42:25;;;;;;;2.50;2.30;;;10.20;99.90;;;;;;5075540;28;20486;-55
2021/10/01 02:44:53;;;;;;;2.90;2.40;;;10.20;99.90;;;;;;5075597;28;20443;-54
2021/10/01 02:47:21;;;;;;;3.33;1.83;;;10.10;99.90;;;;;;5075385;28;20751;-55
2021/10/01 02:49:47;;;;;;;12.13;2.27;;;10.10;99.90;;;;;;5075335;28;20837;-52
2021/10/01 02:52:20;;;;;;;2.53;1.70;;;10.10;99.90;;;;;;5075617;28;20468;-52
2021/10/01 02:54:54;;;;;;;3.27;2.13;;;10.10;99.90;;;;;;5075338;28;20470;-53
2021/10/01 02:57:24;;;;;;;1.63;1.43;;;10.10;99.90;;;;;;5075308;28;20472;-54
2021/10/01 02:59:53;;;;;;;3.10;1.90;;;10.10;99.90;;;;;;5074665;28;20470;-52
2021/10/01 03:02:22;;;;;;;2.43;2.23;;;10.10;99.90;;;;;;5074542;28;20531;-52
2021/10/01 03:04:53;;;;;;;4.60;1.83;;;10.10;99.90;;;;;;5075156;28;20473;-51
2021/10/01 03:07:22;;;;;;;2.23;1.77;;;10.10;99.90;;;;;;5074981;28;20515;-53
2021/10/01 03:09:51;;;;;;;4.87;2.23;;;10.10;99.90;;;;;;5074756;28;20457;-55
2021/10/01 03:12:19;;;;;;;5.17;2.30;;;10.20;99.90;;;;;;5074939;28;20455;-52
2021/10/01 03:14:47;;;;;;;10.50;3.47;;;10.20;99.90;;;;;;5074973;28;20454;-53
2021/10/01 03:17:14;;;;;;;4.73;2.43;;;10.10;99.90;;;;;;5075025;28;20477;-52
2021/10/01 03:19:42;;;;;;;4.10;2.10;;;10.20;99.90;;;;;;5074976;28;20450;-51
2021/10/01 03:22:09;;;;;;;3.30;2.50;;;10.10;99.90;;;;;;5074765;28;20555;-54
2021/10/01 03:24:36;;;;;;;2.13;1.53;;;10.10;99.90;;;;;;5074855;28;20435;-56
2021/10/01 03:27:05;;;;;;;2.77;2.00;;;10.10;99.90;;;;;;5074868;28;20450;-55
2021/10/01 03:29:32;;;;;;;3.80;2.57;;;10.10;99.90;;;;;;5074817;28;20450;-51
2021/10/01 03:32:01;;;;;;;3.40;2.20;;;10.20;99.90;;;;;;5075283;28;20979;-53
2021/10/01 03:34:28;;;;;;;2.37;1.80;;;10.10;99.90;;;;;;5074817;28;20506;-52
2021/10/01 03:36:55;;;;;;;3.83;2.80;;;10.10;99.90;;;;;;5074699;28;20504;-53
2021/10/01 03:39:22;;;;;;;3.63;2.17;;;10.10;99.90;;;;;;5074583;28;20535;-52
2021/10/01 03:41:49;;;;;;;4.70;2.40;;;10.10;99.90;;;;;;5075994;28;20948;-55
2021/10/01 03:44:17;;;;;;;4.33;2.30;;;10.10;99.90;;;;;;5075808;28;20446;-54
2021/10/01 03:46:47;;;;;;;1.87;1.60;;;10.10;99.90;;;;;;5074626;28;20423;-51
2021/10/01 03:49:13;;;;;;;2.37;2.00;;;10.00;99.90;;;;;;5074573;28;20442;-55
2021/10/01 03:51:40;;;;;;;2.63;2.00;;;10.00;99.90;;;;;;5074283;28;20455;-54
2021/10/01 03:54:07;;;;;;;6.03;2.00;;;9.90;99.90;;;;;;5074551;28;20519;-51
2021/10/01 03:56:33;;;;;;;2.77;1.80;;;9.90;99.90;;;;;;5074410;28;20475;-55
2021/10/01 03:59:00;;;;;;;2.70;2.13;;;9.90;99.90;;;;;;5074377;28;20458;-49
2021/10/01 04:01:28;;;;;;;1.67;1.37;;;9.90;99.90;;;;;;5074616;28;20528;-54
2021/10/01 04:03:54;;;;;;;2.70;1.80;;;9.90;99.90;;;;;;5075064;28;20953;-53
2021/10/01 04:06:21;;;;;;;3.60;2.00;;;9.90;99.90;;;;;;5074537;28;20438;-55
2021/10/01 04:08:48;;;;;;;2.30;1.53;;;9.90;99.90;;;;;;5074710;28;20825;-55
2021/10/01 04:11:14;;;;;;;3.53;2.37;;;9.80;99.90;;;;;;5074401;28;20454;-51
2021/10/01 04:13:41;;;;;;;1.70;1.57;;;9.80;99.90;;;;;;5075380;28;20465;-51
2021/10/01 04:16:08;;;;;;;4.60;3.13;;;9.80;99.90;;;;;;5078439;28;20481;-55
2021/10/01 04:18:36;;;;;;;8.30;2.70;;;9.80;99.90;;;;;;5078354;28;20470;-55
2021/10/01 04:21:02;;;;;;;3.53;2.20;;;9.80;99.90;;;;;;5078405;28;20434;-52
2021/10/01 04:23:29;;;;;;;3.03;2.17;;;9.80;99.90;;;;;;5077807;28;20974;-53
2021/10/01 04:25:56;;;;;;;3.00;2.00;;;9.80;99.90;;;;;;5078302;28;20427;-51
2021/10/01 04:28:22;;;;;;;3.73;1.97;;;9.80;99.90;;;;;;5077921;28;20949;-52
2021/10/01 04:30:50;;;;;;;3.50;2.50;;;9.80;99.90;;;;;;5078140;28;20829;-52
2021/10/01 04:33:20;;;;;;;5.13;2.23;;;9.70;99.90;;;;;;5078318;28;20454;-53
2021/10/01 04:35:49;;;;;;;2.70;2.17;;;9.80;99.90;;;;;;5078045;28;20474;-52
2021/10/01 04:38:16;;;;;;;2.50;2.30;;;9.70;99.90;;;;;;5077931;28;20442;-54
2021/10/01 04:40:43;;;;;;;5.43;2.50;;;9.70;99.90;;;;;;5077865;28;20470;-49
2021/10/01 04:43:10;;;;;;;3.03;2.00;;;9.70;99.90;;;;;;5077503;28;21016;-52
2021/10/01 04:45:37;;;;;;;4.27;2.90;;;9.70;99.90;;;;;;5077749;28;20500;-56
2021/10/01 04:48:05;;;;;;;2.67;2.30;;;9.70;99.90;;;;;;5077496;28;20492;-54
2021/10/01 04:50:31;;;;;;;4.03;2.33;;;9.70;99.90;;;;;;5077700;28;20533;-51
2021/10/01 04:53:00;;;;;;;2.90;2.60;;;9.70;99.90;;;;;;5077732;28;20495;-51
2021/10/01 04:55:27;;;;;;;2.80;2.60;;;9.80;99.90;;;;;;5077590;28;20446;-52
2021/10/01 04:57:54;;;;;;;3.00;2.37;;;9.80;99.90;;;;;;5077546;28;20474;-53
2021/10/01 05:00:21;;;;;;;3.50;1.90;;;9.80;99.90;;;;;;5077301;28;20978;-55
2021/10/01 05:02:48;;;;;;;7.30;2.83;;;9.80;99.90;;;;;;5077045;28;20958;-49
2021/10/01 05:05:14;;;;;;;4.80;3.10;;;9.70;99.90;;;;;;5077489;28;20828;-52
2021/10/01 05:07:41;;;;;;;6.53;2.00;;;9.70;99.90;;;;;;5077438;28;20507;-47
2021/10/01 05:10:10;;;;;;;3.07;2.10;;;9.70;99.90;;;;;;5077469;28;20496;-51
2021/10/01 05:12:36;;;;;;;11.20;2.40;;;9.70;99.90;;;;;;5077327;28;20503;-53
2021/10/01 05:15:03;;;;;;;4.43;2.37;;;9.60;99.90;;;;;;5077296;28;20441;-50
2021/10/01 05:17:30;;;;;;;9.90;2.63;;;9.60;99.90;;;;;;5076901;28;20988;-50
2021/10/01 05:19:57;;;;;;;8.23;2.90;;;9.60;99.90;;;;;;5076962;28;20544;-52
2021/10/01 05:22:23;;;;;;;2.80;1.90;;;9.60;99.90;;;;;;5076913;28;21039;-57
2021/10/01 05:24:50;;;;;;;5.43;1.77;;;9.70;99.90;;;;;;5078571;28;20474;-52
2021/10/01 05:27:18;;;;;;;2.40;1.80;;;9.70;99.90;;;;;;5084219;28;20978;-55
2021/10/01 05:29:45;;;;;;;3.50;1.80;;;9.80;99.90;;;;;;5096371;22;20496;-53
2021/10/01 05:32:12;;;;;;;6.63;2.63;;;9.80;99.90;;;;;;5107726;28;20473;-51
2021/10/01 05:34:39;;;;;;;4.23;2.43;;;9.80;99.90;;;;;;5110395;22;20536;-55
2021/10/01 05:37:06;;;;;;;4.00;2.27;;;9.90;99.90;;;;;;5087753;28;20442;-51
2021/10/01 05:39:33;;;;;;;3.10;2.60;;;9.90;99.90;;;;;;5095816;22;20496;-52
2021/10/01 05:42:00;;;;;;;5.50;2.30;;;10.00;99.90;;;;;;5083045;28;20519;-54
2021/10/01 05:47:07;;;;;;;6.80;3.10;;;10.00;99.90;;;;;;5129247;22;20545;-41
2021/10/01 05:52:24;;;;;;;2.77;2.30;;;10.20;99.90;;;;;;5129595;22;20507;-40
2021/10/01 05:57:30;;;;;;;3.47;2.10;;;10.30;99.90;;;;;;5115252;22;20481;-40
2021/10/01 05:59:57;;;;;;;7.30;3.80;;;10.30;99.90;;;;;;5107883;28;20465;-40
2021/10/01 06:02:26;;;;;;;2.10;1.90;;;10.30;99.90;;;;;;5115281;22;20477;-47
2021/10/01 06:04:55;;;;;;;5.20;2.80;;;10.30;99.90;;;;;;5107398;28;21099;-40
2021/10/01 06:07:22;;;;;;;5.43;2.67;;;10.40;99.90;;;;;;5115544;22;20559;-40
2021/10/01 06:09:49;;;;;;;2.93;2.60;;;10.40;99.90;;;;;;5087263;28;20455;-42
2021/10/01 06:12:17;;;;;;;2.97;2.20;;;10.40;99.90;;;;;;5108787;22;21062;-41
2021/10/01 06:14:44;;;;;;;2.00;1.80;;;10.40;99.90;;;;;;5107557;28;20441;-41
2021/10/01 06:17:12;;;;;;;3.50;2.67;;;10.50;99.90;;;;;;5104383;22;20486;-40
2021/10/01 06:19:43;;;;;;;3.30;2.63;;;10.60;99.90;;;;;;5086349;28;20537;-41
2021/10/01 06:22:12;;;;;;;3.63;2.40;;;10.60;99.90;;;;;;5094205;22;20480;-42
2021/10/01 06:24:40;;;;;;;3.20;2.60;;;10.60;99.90;;;;;;5086059;28;20446;-41
2021/10/01 06:27:07;;;;;;;4.90;2.13;;;10.70;99.90;;;;;;5088110;22;20479;-44
2021/10/01 06:29:34;;;;;;;6.13;2.80;;;10.70;99.90;;;;;;5066769;28;20435;-40
2021/10/01 06:32:01;;;;;;;3.30;2.07;;;10.70;99.90;;;;;;5081865;22;20477;-40
2021/10/01 06:34:27;;;;;;;2.63;2.43;;;10.70;99.90;;;;;;5106976;28;20430;-39
2021/10/01 06:36:56;;;;;;;7.30;4.20;;;10.70;99.90;;;;;;5113883;22;20790;-41
2021/10/01 06:39:23;;;;;;;6.50;3.00;;;10.70;99.90;;;;;;5107144;28;20430;-41
2021/10/01 06:41:52;;;;;;;5.90;2.53;;;10.80;99.90;;;;;;5131419;22;20546;-41
2021/10/01 06:44:23;;;;;;;5.23;2.27;;;10.80;99.90;;;;;;5130502;22;20500;-41
2021/10/01 06:46:51;;;;;;;4.03;2.40;;;10.80;99.90;;;;;;5108132;28;20554;-40
2021/10/01 06:49:34;;;;;;;2.77;2.17;;;10.80;99.90;;;;;;5116960;22;20597;-41
2021/10/01 06:52:26;;;;;;;2.60;2.40;;;10.80;99.90;;;;;;5086291;28;20473;-39
2021/10/01 07:22:25;;;;;;;6.03;2.03;;;11.80;99.90;;;;;;5104832;28;20452;-40
2021/10/01 08:19:25;;;;;;;2.43;1.77;;;13.40;99.90;;;;;;5117911;22;20474;-39
2021/10/01 08:21:54;;;;;;;6.40;1.50;;;13.50;99.90;;;;;;5093195;28;20219;-38
2021/10/01 08:24:21;;;;;;;2.10;1.23;;;13.80;99.90;;;;;;5081423;28;20520;-42
2021/10/01 08:26:49;;;;;;;1.83;1.73;;;14.00;99.90;;;;;;5077956;28;20516;-47
2021/10/01 08:29:16;;;;;;;1.60;1.50;;;14.30;99.90;;;;;;5076155;28;20430;-41
2021/10/01 08:31:43;;;;;;;1.87;1.43;;;14.60;99.90;;;;;;5075722;28;20895;-41
2021/10/01 08:34:10;;;;;;;6.50;1.60;;;15.20;99.90;;;;;;5075895;28;20427;-42
2021/10/01 08:36:39;;;;;;;2.07;1.53;;;15.80;99.90;;;;;;5076234;28;20423;-43
2021/10/01 08:39:07;;;;;;;2.10;1.90;;;16.50;99.90;;;;;;5075279;28;20476;-40
2021/10/01 08:41:34;;;;;;;2.20;1.37;;;17.20;99.90;;;;;;5075818;28;20454;-38
2021/10/01 08:44:01;;;;;;;1.60;1.23;;;17.90;99.90;;;;;;5075610;28;20482;-41
2021/10/01 08:46:29;;;;;;;2.40;1.53;;;18.60;99.90;;;;;;5078604;28;20795;-42
2021/10/01 08:49:00;;;;;;;5.10;1.67;;;18.90;99.90;;;;;;5078119;28;20756;-41
2021/10/01 08:51:27;;;;;;;2.70;1.70;;;19.50;99.90;;;;;;5082517;28;20446;-39
2021/10/01 08:53:57;;;;;;;3.10;1.43;;;20.10;98.70;;;;;;5077113;28;20523;-41
2021/10/01 08:56:26;;;;;;;3.13;1.50;;;20.60;95.00;;;;;;5088429;28;20450;-39
2021/10/01 08:58:53;;;;;;;1.67;1.50;;;21.20;93.20;;;;;;5078167;28;20470;-44
2021/10/01 09:01:21;;;;;;;4.13;1.90;;;21.70;90.00;;;;;;5090479;28;20901;-41
2021/10/01 09:03:48;;;;;;;1.40;1.30;;;22.10;85.10;;;;;;5100182;28;20518;-42
2021/10/01 09:06:16;;;;;;;3.10;1.40;;;22.40;81.40;;;;;;5083467;28;20450;-41
2021/10/01 09:08:50;;;;;;;4.00;1.80;;;22.30;79.50;;;;;;5078791;28;20470;-40
2021/10/01 09:11:24;;;;;;;1.60;1.33;;;22.40;77.70;;;;;;5094408;28;20434;-42
2021/10/01 09:13:51;;;;;;;2.23;1.30;;;22.20;77.00;;;;;;5079848;28;20659;-42
2021/10/01 09:16:18;;;;;;;2.33;1.43;;;21.60;78.00;;;;;;5092925;28;20441;-38
2021/10/01 09:18:47;;;;;;;4.33;1.73;;;20.90;79.20;;;;;;5085712;28;20484;-41
2021/10/01 09:21:16;;;;;;;2.47;1.40;;;20.40;81.00;;;;;;5102797;22;20492;-44
2021/10/01 09:23:54;;;;;;;2.07;1.70;;;19.80;82.60;;;;;;5101310;28;20491;-45
2021/10/01 09:26:25;;;;;;;4.53;1.37;;;19.20;85.50;;;;;;5106359;28;20828;-43
2021/10/01 09:28:55;;;;;;;3.70;2.13;;;19.00;87.70;;;;;;5107898;28;20464;-41
2021/10/01 09:31:33;;;;;;;1.30;1.17;;;19.10;87.60;;;;;;5102201;28;20891;-42
2021/10/01 09:34:01;;;;;;;9.17;2.20;;;19.40;87.30;;;;;;5097217;28;20771;-46
2021/10/01 09:36:28;;;;;;;2.10;1.23;;;19.80;87.00;;;;;;5105720;28;20429;-42
2021/10/01 09:38:55;;;;;;;4.03;1.30;;;19.90;84.40;;;;;;5106692;28;20494;-42
2021/10/01 09:41:26;;;;;;;3.60;1.40;;;20.30;85.30;;;;;;5113768;28;20452;-42
2021/10/01 09:44:14;;;;;;;3.03;1.70;;;20.80;84.90;;;;;;5101090;28;20529;-42
2021/10/01 09:46:44;;;;;;;1.63;1.30;;;21.70;81.40;;;;;;5106431;22;20521;-43
2021/10/01 09:49:14;;;;;;;2.13;1.40;;;22.60;77.80;;;;;;5079381;28;20438;-42
2021/10/01 09:51:47;;;;;;;1.40;1.20;;;23.10;76.10;;;;;;5092526;28;20524;-45
2021/10/01 09:54:15;;;;;;;2.20;2.00;;;23.80;74.20;;;;;;5060674;28;20438;-40
2021/10/01 09:56:43;;;;;;;1.73;1.23;;;24.40;71.30;;;;;;5114379;22;20496;-41
2021/10/01 09:59:13;;;;;;;2.30;1.20;;;24.80;69.10;;;;;;5096239;28;20430;-43
2021/10/01 10:02:04;;;;;;;2.60;1.20;;;25.10;65.10;;;;;;5110048;28;20480;-41
2021/10/01 10:04:33;;;;;;;2.80;1.20;;;25.20;64.60;;;;;;5088868;28;20466;-42
2021/10/01 10:07:09;;;;;;;2.27;1.30;;;25.60;62.80;;;;;;5106906;22;20853;-42
2021/10/01 10:09:40;;;;;;;2.07;1.20;;;25.40;61.30;;;;;;5086003;28;20433;-41
2021/10/01 10:12:11;;;;;;;3.40;1.40;;;25.20;60.20;;;;;;5106496;22;20483;-51
2021/10/01 10:14:43;;;;;;;1.37;1.10;;;24.90;60.40;;;;;;5098800;28;20434;-43
2021/10/01 10:17:19;;;;;;;14.10;2.47;;;24.90;60.50;;;;;;5121455;22;21007;-41
2021/10/01 10:19:45;;;;;;;2.60;1.20;;;24.80;60.50;;;;;;5075180;28;20504;-42
2021/10/01 10:24:53;;;;;;;2.20;1.20;;;24.60;60.20;;;;;;5104708;22;20473;-43
2021/10/01 10:27:22;;;;;;;1.30;1.20;;;24.60;60.00;;;;;;5095427;28;20473;-44
2021/10/01 10:29:51;;;;;;;1.83;1.50;;;24.50;60.00;;;;;;5102014;22;20489;-44
2021/10/01 10:32:18;;;;;;;3.10;1.63;;;24.30;59.90;;;;;;5080903;28;20471;-43
2021/10/01 10:34:51;;;;;;;1.50;1.30;;;24.30;60.60;;;;;;5110841;22;20484;-43
2021/10/01 10:37:18;;;;;;;1.50;1.40;;;24.20;60.50;;;;;;5105111;28;20475;-46
2021/10/01 10:39:52;;;;;;;2.60;1.47;;;23.90;61.20;;;;;;5085899;22;20483;-46
2021/10/01 10:42:40;;;;;;;3.03;1.07;;;23.80;61.10;;;;;;5080305;28;20458;-41
2021/10/01 10:45:19;;;;;;;1.73;1.30;;;23.70;61.40;;;;;;5109426;22;20583;-41
2021/10/01 10:47:51;;;;;;;1.67;1.00;;;23.20;61.50;;;;;;5116667;28;20473;-41
2021/10/01 10:50:44;;;;;;;1.83;1.20;;;22.90;62.70;;;;;;5105384;22;20482;-48
2021/10/01 10:53:31;;;;;;;1.97;1.63;;;22.70;63.10;;;;;;5087023;28;20945;-42
2021/10/01 10:56:17;;;;;;;1.47;1.17;;;22.20;64.00;;;;;;5106219;22;20489;-43
2021/10/01 10:58:55;;;;;;;2.87;1.20;;;22.00;64.40;;;;;;5096720;28;20781;-43
2021/10/01 11:01:46;;;;;;;2.23;1.40;;;21.70;65.40;;;;;;5088327;28;20438;-42
2021/10/01 11:04:35;;;;;;;2.83;1.40;;;21.40;65.90;;;;;;5073671;28;20481;-42
2021/10/01 11:07:04;;;;;;;2.97;1.37;;;21.00;66.90;;;;;;5085623;28;20449;-42
2021/10/01 11:09:34;;;;;;;1.97;1.27;;;20.70;66.80;;;;;;5084792;28;21082;-39
2021/10/01 11:12:22;;;;;;;1.83;1.03;;;20.20;68.30;;;;;;5084288;28;20481;-40
2021/10/01 11:15:15;;;;;;;6.70;3.00;;;20.00;69.10;;;;;;5085517;28;20894;-43
2021/10/01 11:17:42;;;;;;;2.67;1.40;;;19.70;70.70;;;;;;5084331;28;20493;-42
2021/10/01 11:20:29;;;;;;;1.67;1.30;;;19.60;70.60;;;;;;5095976;22;20528;-42
2021/10/01 11:22:56;;;;;;;4.03;1.53;;;19.50;71.90;;;;;;5066185;28;20548;-42
2021/10/01 11:25:23;;;;;;;1.97;1.37;;;19.30;72.40;;;;;;5076172;22;20502;-43
2021/10/01 11:27:52;;;;;;;2.50;1.60;;;19.30;73.60;;;;;;5066651;28;20904;-40
2021/10/01 11:30:21;;;;;;;3.00;1.40;;;19.40;73.20;;;;;;5073855;22;20435;-42
2021/10/01 11:32:48;;;;;;;3.23;1.17;;;19.50;73.60;;;;;;5036077;28;20490;-43
2021/10/01 11:37:48;;;;;;;1.60;1.20;;;19.50;72.20;;;;;;5090016;22;20512;-40
2021/10/01 11:40:21;;;;;;;2.73;1.67;;;19.40;72.50;;;;;;5085772;28;20434;-43
2021/10/01 11:42:50;;;;;;;2.20;1.27;;;19.40;72.60;;;;;;5094313;22;20482;-43
2021/10/01 11:45:18;;;;;;;1.93;1.13;;;19.30;72.80;;;;;;5091788;28;20483;-41
2021/10/01 11:47:57;;;;;;;2.40;1.30;;;19.50;73.10;;;;;;5094289;22;20992;-40
2021/10/01 11:50:32;;;;;;;5.17;1.03;;;19.50;72.20;;;;;;5085370;28;20449;-42
2021/10/01 11:53:00;;;;;;;2.03;1.27;;;19.60;71.90;;;;;;5085253;22;20486;-41
2021/10/01 11:55:27;;;;;;;2.70;1.50;;;19.60;72.10;;;;;;5076152;28;20458;-44
2021/10/01 11:57:54;;;;;;;1.47;1.20;;;19.60;73.10;;;;;;5093434;22;20486;-40
2021/10/01 12:00:23;;;;;;;1.60;1.03;;;19.70;71.60;;;;;;5085181;28;20519;-42
2021/10/01 12:02:51;;;;;;;3.10;1.50;;;19.50;71.80;;;;;;5086642;22;20486;-41
2021/10/01 12:05:25;;;;;;;2.13;1.30;;;19.40;70.70;;;;;;5073695;28;20800;-39
2021/10/01 12:07:53;;;;;;;3.20;1.50;;;19.60;70.40;;;;;;5086693;22;20485;-40
2021/10/01 12:10:22;;;;;;;1.20;0.83;;;19.50;69.80;;;;;;5084126;28;20596;-41
2021/10/01 12:13:10;;;;;;;2.00;1.40;;;19.50;70.50;;;;;;5095622;22;20563;-43
2021/10/01 12:15:43;;;;;;;4.27;1.20;;;19.40;69.00;;;;;;5080628;28;20469;-41
2021/10/01 12:18:27;;;;;;;2.13;1.10;;;19.40;70.50;;;;;;5054275;22;1074484;-41
2021/10/01 12:20:56;;;;;;;2.90;0.90;;;19.50;69.50;;;;;;5080432;28;20216;-40
2021/10/01 12:23:25;;;;;;;3.40;1.10;;;19.60;68.30;;;;;;5111446;22;20558;-43
2021/10/01 12:25:53;;;;;;;1.10;0.80;;;19.50;68.50;;;;;;5086971;28;20492;-41
2021/10/01 12:28:21;;;;;;;5.60;3.40;;;19.50;68.70;;;;;;5088223;22;20494;-41
2021/10/01 12:31:00;;;;;;;4.50;1.27;;;19.60;69.20;;;;;;5065970;28;20471;-40
2021/10/01 12:33:27;;;;;;;2.33;1.10;;;19.70;68.10;;;;;;5072995;22;20490;-41
2021/10/01 12:35:56;;;;;;;1.10;1.00;;;19.60;68.70;;;;;;5058569;28;20455;-39
2021/10/01 12:38:23;;;;;;;1.23;1.00;;;19.60;69.30;;;;;;5076184;22;20749;-41
2021/10/01 12:41:09;;;;;;;1.63;1.20;;;19.60;67.90;;;;;;5119932;28;20452;-37
2021/10/01 12:43:47;;;;;;;2.00;1.20;;;19.70;66.80;;;;;;5123337;22;20744;-43
2021/10/01 12:46:51;;;;;;;2.33;1.40;;;19.60;66.80;;;;;;5086688;28;20458;-42
2021/10/01 12:49:26;;;;;;;1.53;1.13;;;19.50;67.50;;;;;;5090217;22;20517;-44
2021/10/01 12:52:13;;;;;;;2.90;0.90;;;19.70;66.60;;;;;;5069883;28;20516;-43
2021/10/01 12:54:48;;;;;;;1.43;1.20;;;19.70;66.20;;;;;;5077729;22;20435;-40
2021/10/01 12:57:27;;;;;;;1.70;1.10;;;19.80;66.20;;;;;;5068841;28;20469;-41
2021/10/01 12:59:56;;;;;;;1.67;1.17;;;19.90;65.90;;;;;;5087817;22;20466;-43
2021/10/01 13:02:24;;;;;;;1.23;1.00;;;20.00;65.40;;;;;;5090086;28;20954;-42
2021/10/01 13:04:54;;;;;;;2.47;1.17;;;19.90;65.30;;;;;;5097231;22;20469;-40
2021/10/01 13:07:34;;;;;;;3.10;1.10;;;20.00;65.70;;;;;;5056861;28;20471;-41
2021/10/01 13:10:06;;;;;;;4.70;1.30;;;20.00;65.60;;;;;;5065737;22;20443;-44
2021/10/01 13:12:39;;;;;;;3.87;1.30;;;20.20;66.10;;;;;;5068392;28;20473;-41
2021/10/01 13:15:12;;;;;;;1.20;0.90;;;20.70;65.90;;;;;;5072400;22;20485;-40
2021/10/01 13:17:39;;;;;;;2.07;1.30;;;20.80;64.90;;;;;;5113240;22;20501;-43
2021/10/01 13:20:07;;;;;;;1.50;1.30;;;20.60;65.70;;;;;;5099520;28;20507;-45
2021/10/01 13:22:55;;;;;;;1.43;1.13;;;20.40;65.70;;;;;;5107399;22;20481;-41
2021/10/01 13:25:23;;;;;;;3.67;1.53;;;20.10;66.30;;;;;;5099355;28;20488;-41
2021/10/01 13:27:51;;;;;;;2.33;1.47;;;19.90;67.30;;;;;;5107274;22;20487;-45
2021/10/01 13:30:17;;;;;;;1.93;1.30;;;19.80;68.10;;;;;;5099054;28;20920;-43
2021/10/01 13:32:44;;;;;;;4.53;1.20;;;19.90;67.30;;;;;;5105561;22;20493;-44
2021/10/01 13:35:12;;;;;;;1.73;1.30;;;19.90;67.20;;;;;;5099382;28;20518;-44
2021/10/01 13:37:39;;;;;;;4.23;1.60;;;19.80;67.30;;;;;;5106971;22;20521;-43
2021/10/01 13:40:08;;;;;;;4.00;2.23;;;19.80;67.50;;;;;;5098922;28;20480;-43
2021/10/01 13:42:34;;;;;;;7.00;1.60;;;19.80;66.10;;;;;;5102928;22;20493;-43
2021/10/01 13:45:01;;;;;;;5.10;2.00;;;19.80;65.20;;;;;;5079488;28;20516;-41
2021/10/01 13:47:30;;;;;;;1.97;1.50;;;19.90;65.20;;;;;;5089667;22;20499;-41
2021/10/01 13:49:57;;;;;;;2.10;1.30;;;20.10;65.20;;;;;;5078936;28;20515;-43
2021/10/01 13:54:59;;;;;;;1.40;1.20;;;20.10;63.90;;;;;;5104619;22;20580;-43
2021/10/01 13:57:28;;;;;;;2.70;1.20;;;20.00;64.10;;;;;;5098419;28;20445;-47
2021/10/01 13:59:55;;;;;;;1.83;1.13;;;20.00;64.30;;;;;;5088299;22;20872;-46
2021/10/01 14:02:22;;;;;;;1.47;1.13;;;20.00;64.60;;;;;;5078262;28;20523;-44
2021/10/01 14:04:49;;;;;;;2.03;1.33;;;20.00;63.70;;;;;;5085738;22;20490;-46
2021/10/01 14:07:16;;;;;;;2.83;1.73;;;20.00;63.60;;;;;;5079199;28;20495;-48
2021/10/01 14:09:43;;;;;;;1.47;1.23;;;19.90;63.30;;;;;;5100540;22;20564;-44
2021/10/01 14:12:11;;;;;;;2.70;1.30;;;19.90;64.70;;;;;;5100821;28;20905;-42
2021/10/01 14:14:39;;;;;;;2.03;1.40;;;19.90;63.10;;;;;;5106357;22;20592;-43
2021/10/01 14:17:05;;;;;;;1.30;1.10;;;19.90;63.10;;;;;;5098113;28;20519;-43
2021/10/01 14:19:32;;;;;;;2.10;1.53;;;19.80;61.80;;;;;;5106195;22;20489;-42
2021/10/01 14:21:59;;;;;;;1.63;1.03;;;19.70;62.30;;;;;;5097623;28;20471;-43
2021/10/01 14:24:25;;;;;;;3.63;1.83;;;19.50;62.50;;;;;;5105992;22;20818;-40
2021/10/01 14:26:52;;;;;;;2.50;1.47;;;19.50;63.90;;;;;;5098033;28;20756;-46
2021/10/01 14:29:19;;;;;;;2.00;1.20;;;19.40;63.30;;;;;;5106252;22;21714;-44
2021/10/01 14:31:47;;;;;;;1.60;1.17;;;19.30;63.30;;;;;;5097936;28;20511;-45
2021/10/01 14:34:13;;;;;;;1.63;1.43;;;19.40;63.90;;;;;;5105473;22;20593;-43
2021/10/01 14:36:40;;;;;;;2.23;1.50;;;19.50;64.00;;;;;;5078226;28;20493;-47
2021/10/01 14:39:07;;;;;;;2.60;1.40;;;19.50;64.70;;;;;;5078867;28;20467;-45
2021/10/01 14:41:34;;;;;;;2.40;1.67;;;19.40;63.20;;;;;;5103626;22;20493;-45
2021/10/01 14:44:01;;;;;;;1.43;1.13;;;19.40;63.40;;;;;;5098207;28;20499;-44